createdAt,value
2024-01-30T00:00:11.836Z,2.20
2024-01-30T00:02:40.029Z,2.10
2024-01-30T00:05:08.704Z,2.10
2024-01-30T00:07:37.008Z,2.00
2024-01-30T00:10:07.415Z,2.00
2024-01-30T00:12:35.709Z,2.00
2024-01-30T00:15:05.725Z,2.00
2024-01-30T00:17:35.376Z,2.00
2024-01-30T00:20:06.588Z,2.10
2024-01-30T00:22:35.167Z,2.00
2024-01-30T00:25:03.502Z,2.00
2024-01-30T00:27:31.959Z,2.10
2024-01-30T00:30:00.196Z,2.00
2024-01-30T00:32:28.407Z,2.10
2024-01-30T00:34:58.237Z,2.10
2024-01-30T00:37:26.599Z,2.10
2024-01-30T00:39:55.101Z,2.00
2024-01-30T00:42:26.886Z,2.00
2024-01-30T00:44:55.089Z,2.00
2024-01-30T00:47:23.286Z,2.10
2024-01-30T00:49:51.765Z,2.00
2024-01-30T00:52:23.971Z,2.00
2024-01-30T00:54:52.301Z,2.00
2024-01-30T00:57:20.576Z,2.00
2024-01-30T00:59:48.740Z,2.00
2024-01-30T01:02:18.503Z,2.00
2024-01-30T01:04:46.898Z,2.00
2024-01-30T01:07:15.257Z,2.00
2024-01-30T01:09:45.043Z,2.00
2024-01-30T01:12:13.266Z,2.00
2024-01-30T01:14:41.507Z,2.00
2024-01-30T01:17:08.703Z,2.00
2024-01-30T01:19:37.061Z,2.00
2024-01-30T01:22:05.615Z,2.00
2024-01-30T01:24:33.954Z,2.10
2024-01-30T01:27:03.561Z,2.20
2024-01-30T01:29:31.753Z,2.20
2024-01-30T01:32:00.298Z,2.20
2024-01-30T01:34:30.580Z,2.20
2024-01-30T01:36:59.422Z,2.00
2024-01-30T01:39:27.713Z,2.00
2024-01-30T01:41:55.926Z,2.00
2024-01-30T01:44:25.591Z,2.10
2024-01-30T01:46:54.643Z,2.10
2024-01-30T01:49:25.422Z,2.10
2024-01-30T01:51:56.312Z,2.00
2024-01-30T01:54:24.874Z,2.00
2024-01-30T01:56:53.800Z,2.00
2024-01-30T01:59:23.181Z,1.90
2024-01-30T02:01:55.137Z,1.90
2024-01-30T02:04:23.653Z,1.90
2024-01-30T02:06:52.655Z,2.00
2024-01-30T02:09:20.889Z,2.00
2024-01-30T02:11:49.212Z,1.90
2024-01-30T02:14:17.445Z,1.90
2024-01-30T02:16:45.605Z,1.80
2024-01-30T02:19:15.324Z,1.80
2024-01-30T02:21:45.432Z,1.80
2024-01-30T02:24:13.666Z,1.80
2024-01-30T02:26:41.857Z,1.80
2024-01-30T02:29:10.066Z,1.70
2024-01-30T02:31:38.256Z,1.70
2024-01-30T02:34:07.195Z,1.70
2024-01-30T02:36:35.583Z,1.80
2024-01-30T02:39:06.332Z,1.80
2024-01-30T02:41:34.702Z,1.90
2024-01-30T02:44:02.952Z,1.80
2024-01-30T02:46:31.246Z,1.90
2024-01-30T02:48:59.685Z,2.00
2024-01-30T02:51:28.028Z,1.90
2024-01-30T02:53:56.265Z,1.90
2024-01-30T02:56:26.025Z,1.90
2024-01-30T02:58:54.225Z,2.00
2024-01-30T03:01:22.626Z,2.00
2024-01-30T03:03:49.933Z,2.00
2024-01-30T03:06:18.775Z,2.00
2024-01-30T03:08:46.986Z,2.00
2024-01-30T03:11:15.311Z,1.90
2024-01-30T03:13:44.978Z,1.90
2024-01-30T03:16:13.169Z,1.90
2024-01-30T03:18:41.510Z,1.80
2024-01-30T03:21:09.789Z,1.90
2024-01-30T03:23:38.108Z,1.80
2024-01-30T03:26:08.021Z,1.80
2024-01-30T03:28:36.255Z,1.80
2024-01-30T03:31:06.169Z,1.80
2024-01-30T03:33:34.507Z,1.80
2024-01-30T03:36:06.024Z,1.70
2024-01-30T03:38:37.190Z,1.70
2024-01-30T03:41:05.673Z,1.60
2024-01-30T03:43:33.887Z,1.60
2024-01-30T03:46:03.494Z,1.60
2024-01-30T03:48:33.263Z,1.50
2024-01-30T03:51:01.746Z,1.60
2024-01-30T03:53:30.186Z,1.60
2024-01-30T03:55:58.398Z,1.50
2024-01-30T03:58:26.665Z,1.50
2024-01-30T04:00:55.004Z,1.50
2024-01-30T04:03:23.334Z,1.50
2024-01-30T04:05:54.147Z,1.40
2024-01-30T04:08:22.464Z,1.50
2024-01-30T04:10:51.445Z,1.50
2024-01-30T04:13:19.683Z,1.50
2024-01-30T04:15:47.933Z,1.50
2024-01-30T04:18:16.316Z,1.50
2024-01-30T04:20:44.491Z,1.50
2024-01-30T04:23:14.171Z,1.50
2024-01-30T04:25:42.431Z,1.50
2024-01-30T04:28:10.667Z,1.50
2024-01-30T04:30:39.378Z,1.40
2024-01-30T04:33:08.023Z,1.50
2024-01-30T04:35:36.253Z,1.40
2024-01-30T04:38:04.588Z,1.50
2024-01-30T04:40:34.204Z,1.40
2024-01-30T04:43:02.488Z,1.50
2024-01-30T04:45:30.722Z,1.50
2024-01-30T04:47:58.945Z,1.50
2024-01-30T04:50:27.881Z,1.50
2024-01-30T04:52:56.129Z,1.60
2024-01-30T04:55:27.196Z,1.50
2024-01-30T04:57:56.899Z,1.50
2024-01-30T05:00:25.124Z,1.50
2024-01-30T05:02:53.278Z,1.40
2024-01-30T05:05:22.913Z,1.40
2024-01-30T05:07:51.358Z,1.40
2024-01-30T05:10:22.174Z,1.40
2024-01-30T05:12:50.649Z,1.50
2024-01-30T05:15:21.672Z,1.50
2024-01-30T05:17:49.877Z,1.50
2024-01-30T05:20:19.668Z,1.40
2024-01-30T05:22:47.954Z,1.40
2024-01-30T05:25:16.454Z,1.50
2024-01-30T05:27:44.821Z,1.50
2024-01-30T05:30:13.978Z,1.50
2024-01-30T05:32:43.623Z,1.50
2024-01-30T05:35:11.883Z,1.50
2024-01-30T05:37:43.097Z,1.50
2024-01-30T05:40:12.405Z,1.40
2024-01-30T05:42:40.709Z,1.40
2024-01-30T05:45:09.780Z,1.40
2024-01-30T05:47:38.079Z,1.40
2024-01-30T05:50:09.400Z,1.40
2024-01-30T05:52:37.790Z,1.40
2024-01-30T05:55:07.049Z,1.40
2024-01-30T05:57:35.362Z,1.50
2024-01-30T06:00:04.884Z,1.50
2024-01-30T06:02:33.126Z,1.50
2024-01-30T06:05:01.342Z,1.50
2024-01-30T06:07:34.348Z,1.40
2024-01-30T06:10:05.359Z,1.50
2024-01-30T06:12:33.594Z,1.50
2024-01-30T06:15:01.798Z,1.50
2024-01-30T06:17:30.527Z,1.50
2024-01-30T06:19:58.828Z,1.50
2024-01-30T06:22:27.128Z,1.50
2024-01-30T06:24:57.629Z,1.50
2024-01-30T06:27:25.985Z,1.50
2024-01-30T06:29:54.285Z,1.40
2024-01-30T06:32:22.491Z,1.20
2024-01-30T06:34:50.794Z,1.00
2024-01-30T06:37:19.202Z,1.10
2024-01-30T06:39:47.636Z,1.20
2024-01-30T06:42:17.244Z,1.20
2024-01-30T06:44:45.511Z,1.30
2024-01-30T06:47:13.753Z,1.40
2024-01-30T06:49:43.372Z,1.40
2024-01-30T06:52:11.761Z,1.40
2024-01-30T06:54:41.115Z,1.40
2024-01-30T06:57:13.249Z,1.40
2024-01-30T06:59:46.603Z,1.50
2024-01-30T07:02:15.101Z,1.50
2024-01-30T07:04:47.027Z,1.50
2024-01-30T07:07:16.789Z,1.50
2024-01-30T07:09:45.332Z,1.50
2024-01-30T07:12:13.684Z,1.50
2024-01-30T07:14:43.839Z,1.50
2024-01-30T07:17:12.098Z,1.60
2024-01-30T07:19:40.331Z,1.60
2024-01-30T07:22:08.775Z,1.60
2024-01-30T07:24:37.025Z,1.60
2024-01-30T07:27:05.860Z,1.70
2024-01-30T07:29:34.271Z,1.70
2024-01-30T07:32:04.027Z,1.80
2024-01-30T07:34:33.615Z,1.80
2024-01-30T07:37:05.279Z,1.80
2024-01-30T07:39:33.543Z,1.80
2024-01-30T07:42:02.805Z,1.80
2024-01-30T07:44:32.142Z,1.80
2024-01-30T07:47:00.740Z,1.70
2024-01-30T07:49:30.426Z,1.70
2024-01-30T07:51:58.871Z,1.70
2024-01-30T07:54:27.665Z,1.80
2024-01-30T07:56:56.253Z,1.70
2024-01-30T07:59:26.089Z,1.80
2024-01-30T08:01:54.293Z,1.80
2024-01-30T08:04:22.726Z,1.80
2024-01-30T08:06:52.845Z,1.80
2024-01-30T08:09:21.221Z,1.90
2024-01-30T08:11:49.381Z,1.90
2024-01-30T08:14:17.698Z,1.90
2024-01-30T08:32:16.495Z,1.80
2024-01-30T08:34:44.878Z,1.90
2024-01-30T08:37:13.189Z,1.90
2024-01-30T08:39:41.431Z,2.00
2024-01-30T08:42:09.614Z,2.00
2024-01-30T08:44:37.838Z,2.00
2024-01-30T08:47:06.548Z,2.10
2024-01-30T08:49:36.202Z,2.10
2024-01-30T08:52:04.584Z,2.10
2024-01-30T08:54:35.312Z,2.20
2024-01-30T08:57:03.745Z,2.10
2024-01-30T08:59:31.961Z,2.10
2024-01-30T09:02:11.150Z,2.20
2024-01-30T09:04:42.739Z,2.20
2024-01-30T09:07:12.438Z,2.30
2024-01-30T09:09:41.742Z,2.30
2024-01-30T09:12:12.952Z,2.40
2024-01-30T09:14:42.581Z,2.40
2024-01-30T09:17:11.007Z,2.40
2024-01-30T09:19:39.434Z,2.40
2024-01-30T09:22:09.243Z,2.40
2024-01-30T09:24:37.484Z,2.50
2024-01-30T09:27:06.120Z,2.50
2024-01-30T09:29:35.385Z,2.60
2024-01-30T09:32:03.698Z,2.60
2024-01-30T09:34:32.120Z,2.60
2024-01-30T09:37:01.019Z,2.60
2024-01-30T09:39:30.587Z,2.70
2024-01-30T09:42:05.095Z,2.80
2024-01-30T09:44:34.492Z,2.80
2024-01-30T09:47:05.042Z,2.90
2024-01-30T09:49:35.144Z,3.00
2024-01-30T09:52:04.664Z,3.00
2024-01-30T09:54:36.909Z,3.10
2024-01-30T09:57:05.948Z,3.10
2024-01-30T09:59:34.395Z,3.20
2024-01-30T10:02:05.524Z,3.20
2024-01-30T10:04:34.009Z,3.20
2024-01-30T10:07:04.831Z,3.20
2024-01-30T10:09:36.687Z,3.30
2024-01-30T10:12:05.857Z,3.30
2024-01-30T10:14:34.104Z,3.40
2024-01-30T10:17:11.747Z,3.40
2024-01-30T10:19:46.000Z,3.50
2024-01-30T10:22:14.288Z,3.60
2024-01-30T10:24:44.086Z,3.60
2024-01-30T10:27:12.489Z,3.70
2024-01-30T10:29:40.704Z,3.70
2024-01-30T10:32:09.147Z,3.80
2024-01-30T10:34:38.325Z,3.80
2024-01-30T10:37:14.172Z,3.90
2024-01-30T10:39:45.517Z,4.00
2024-01-30T10:42:15.191Z,4.00
2024-01-30T10:44:51.313Z,4.10
2024-01-30T10:47:28.737Z,4.20
2024-01-30T10:49:58.022Z,4.20
2024-01-30T10:52:28.893Z,4.30
2024-01-30T10:54:58.909Z,4.40
2024-01-30T10:57:28.169Z,4.40
2024-01-30T10:59:59.504Z,4.50
2024-01-30T11:02:28.441Z,4.50
2024-01-30T11:05:01.341Z,4.60
2024-01-30T11:07:31.429Z,4.70
2024-01-30T11:10:05.849Z,4.80
2024-01-30T11:12:35.473Z,4.90
2024-01-30T11:15:08.843Z,4.90
2024-01-30T11:17:52.277Z,5.00
2024-01-30T11:20:24.376Z,5.10
2024-01-30T11:22:55.067Z,5.10
2024-01-30T11:25:25.516Z,5.20
2024-01-30T11:27:55.612Z,5.30
2024-01-30T11:30:25.147Z,5.30
2024-01-30T11:33:08.605Z,5.40
2024-01-30T11:35:38.591Z,5.40
2024-01-30T11:38:07.736Z,5.50
2024-01-30T11:40:39.265Z,5.50
2024-01-30T11:43:09.075Z,5.60
2024-01-30T11:45:38.687Z,5.60
2024-01-30T11:48:08.799Z,5.60
2024-01-30T11:50:39.191Z,5.70
2024-01-30T11:53:08.818Z,5.70
2024-01-30T11:55:39.087Z,5.80
2024-01-30T11:58:07.780Z,5.80
2024-01-30T12:00:36.611Z,5.80
2024-01-30T12:03:08.221Z,5.90
2024-01-30T12:05:37.981Z,5.90
2024-01-30T12:08:07.296Z,6.00
2024-01-30T12:10:35.681Z,6.00
2024-01-30T12:13:06.018Z,6.10
2024-01-30T12:15:34.541Z,6.10
2024-01-30T12:18:09.877Z,6.10
2024-01-30T12:20:38.372Z,6.20
2024-01-30T12:23:06.769Z,6.20
2024-01-30T12:25:35.239Z,6.30
2024-01-30T12:28:06.008Z,6.30
2024-01-30T12:30:34.341Z,6.40
2024-01-30T12:33:03.029Z,6.40
2024-01-30T12:35:33.556Z,6.40
2024-01-30T12:38:02.577Z,6.40
2024-01-30T12:40:31.136Z,6.50
2024-01-30T12:42:59.659Z,6.50
2024-01-30T12:45:29.381Z,6.50
2024-01-30T12:47:57.740Z,6.60
2024-01-30T12:50:26.009Z,6.60
2024-01-30T12:52:54.288Z,6.60
2024-01-30T12:55:22.469Z,6.70
2024-01-30T12:57:50.833Z,6.70
2024-01-30T13:00:19.312Z,6.70
2024-01-30T13:02:50.393Z,6.80
2024-01-30T13:05:18.833Z,6.80
2024-01-30T13:07:47.352Z,6.80
2024-01-30T13:10:15.672Z,6.80
2024-01-30T13:12:43.992Z,6.90
2024-01-30T13:15:12.712Z,6.90
2024-01-30T13:17:41.279Z,7.00
2024-01-30T13:20:13.067Z,7.00
2024-01-30T13:22:41.593Z,7.00
2024-01-30T13:25:10.316Z,7.00
2024-01-30T13:27:39.842Z,7.00
2024-01-30T13:30:11.148Z,7.10
2024-01-30T13:32:39.636Z,7.10
2024-01-30T13:35:08.202Z,7.10
2024-01-30T13:37:38.270Z,7.10
2024-01-30T13:40:12.907Z,7.10
2024-01-30T13:42:42.633Z,7.20
2024-01-30T13:45:12.299Z,7.10
2024-01-30T13:47:41.021Z,7.20
2024-01-30T13:50:11.714Z,7.20
2024-01-30T13:52:44.777Z,7.20
2024-01-30T13:55:14.494Z,7.20
2024-01-30T13:57:43.026Z,7.20
2024-01-30T14:00:12.435Z,7.20
2024-01-30T14:02:41.300Z,7.20
2024-01-30T14:05:10.389Z,7.20
2024-01-30T14:07:42.100Z,7.20
2024-01-30T14:10:14.559Z,7.20
2024-01-30T14:12:45.363Z,7.20
2024-01-30T14:15:23.614Z,7.20
2024-01-30T14:17:57.219Z,7.20
2024-01-30T14:20:25.873Z,7.10
2024-01-30T14:22:57.054Z,7.20
2024-01-30T14:25:25.875Z,7.20
2024-01-30T14:27:56.266Z,7.10
2024-01-30T14:30:24.704Z,7.10
2024-01-30T14:32:53.131Z,7.10
2024-01-30T14:35:21.978Z,7.00
2024-01-30T14:37:50.238Z,7.00
2024-01-30T14:40:20.595Z,7.00
2024-01-30T14:42:49.424Z,7.00
2024-01-30T14:45:18.448Z,7.00
2024-01-30T14:47:47.491Z,7.00
2024-01-30T14:50:17.888Z,6.90
2024-01-30T14:52:46.246Z,6.90
2024-01-30T14:55:14.588Z,6.90
2024-01-30T14:57:46.452Z,6.80
2024-01-30T15:00:17.142Z,6.80
2024-01-30T15:02:45.952Z,6.70
2024-01-30T15:05:22.630Z,6.70
2024-01-30T15:07:51.015Z,6.60
2024-01-30T15:10:19.744Z,6.50
2024-01-30T15:12:49.414Z,6.50
2024-01-30T15:15:17.806Z,6.40
2024-01-30T15:17:46.430Z,6.40
2024-01-30T15:20:14.766Z,6.40
2024-01-30T15:22:43.011Z,6.30
2024-01-30T15:25:11.546Z,6.30
2024-01-30T15:27:41.021Z,6.30
2024-01-30T15:30:14.979Z,6.20
2024-01-30T15:32:43.159Z,6.20
2024-01-30T15:37:40.851Z,6.10
2024-01-30T15:40:10.128Z,6.10
2024-01-30T15:42:38.444Z,6.10
2024-01-30T15:45:09.067Z,6.00
2024-01-30T15:47:39.030Z,6.00
2024-01-30T15:50:08.224Z,6.00
2024-01-30T15:55:17.987Z,5.90
2024-01-30T15:57:46.191Z,5.90
2024-01-30T16:00:16.042Z,5.80
2024-01-30T16:02:45.745Z,5.80
2024-01-30T16:05:14.657Z,5.80
2024-01-30T16:07:52.126Z,5.70
2024-01-30T16:10:40.115Z,5.70
2024-01-30T16:14:05.254Z,5.70
2024-01-30T16:16:44.302Z,5.70
2024-01-30T16:19:44.848Z,5.60
2024-01-30T16:22:38.250Z,5.50
2024-01-30T16:25:44.257Z,5.50
2024-01-30T16:28:44.178Z,5.50
2024-01-30T16:31:53.822Z,5.40
2024-01-30T16:34:49.685Z,5.40
2024-01-30T16:38:00.051Z,5.40
2024-01-30T16:48:56.490Z,5.20
2024-01-30T16:52:14.082Z,5.10
2024-01-30T16:55:39.972Z,5.10
2024-01-30T17:01:31.905Z,5.00
2024-01-30T17:07:03.422Z,4.90
2024-01-30T17:19:38.225Z,4.80
2024-01-30T17:22:37.169Z,4.70
2024-01-30T17:29:41.083Z,4.70
2024-01-30T17:33:43.361Z,4.70
2024-01-30T17:40:59.931Z,4.50
2024-01-30T17:55:28.574Z,4.30
2024-01-30T17:58:30.033Z,4.40
2024-01-30T18:01:40.083Z,4.30
2024-01-30T18:04:36.350Z,4.20
2024-01-30T18:09:05.357Z,4.20
2024-01-30T18:26:38.634Z,4.10
2024-01-30T18:29:40.641Z,4.00
2024-01-30T18:39:10.723Z,4.00
2024-01-30T18:42:58.513Z,3.90
2024-01-30T18:46:10.474Z,3.90
2024-01-30T18:48:57.301Z,3.80
2024-01-30T18:52:17.210Z,3.80
2024-01-30T18:55:20.171Z,3.80
2024-01-30T19:01:00.126Z,3.70
2024-01-30T19:11:56.138Z,3.70
2024-01-30T19:18:15.285Z,3.60
2024-01-30T19:24:03.509Z,3.60
2024-01-30T19:29:08.223Z,3.60
2024-01-30T19:31:39.073Z,3.50
2024-01-30T19:34:28.973Z,3.50
2024-01-30T19:37:05.853Z,3.50
2024-01-30T19:40:00.662Z,3.50
2024-01-30T19:42:46.808Z,3.50
2024-01-30T19:45:27.736Z,3.40
2024-01-30T19:48:13.685Z,3.40
2024-01-30T19:50:57.601Z,3.40
2024-01-30T19:53:33.729Z,3.40
2024-01-30T20:01:58.335Z,3.40
2024-01-30T20:05:02.569Z,3.30
2024-01-30T20:10:24.750Z,3.30
2024-01-30T20:12:53.194Z,3.30
2024-01-30T20:15:45.394Z,3.30
2024-01-30T20:18:32.456Z,3.20
2024-01-30T20:21:20.933Z,3.20
2024-01-30T20:24:11.953Z,3.20
2024-01-30T20:26:55.216Z,3.20
2024-01-30T20:29:29.046Z,3.20
2024-01-30T20:32:08.505Z,3.10
2024-01-30T20:38:14.883Z,3.20
2024-01-30T20:40:59.677Z,3.30
2024-01-30T20:44:05.343Z,3.30
2024-01-30T20:47:06.829Z,3.30
2024-01-30T20:50:09.525Z,3.20
2024-01-30T20:53:07.874Z,3.30
2024-01-30T20:56:31.817Z,3.30
2024-01-30T20:59:16.228Z,3.30
2024-01-30T21:02:30.484Z,3.20
2024-01-30T21:05:25.401Z,3.00
2024-01-30T21:08:05.341Z,2.90
2024-01-30T21:13:26.429Z,3.10
2024-01-30T21:16:03.846Z,3.20
2024-01-30T21:18:37.266Z,3.20
2024-01-30T21:21:20.178Z,3.20
2024-01-30T21:24:17.157Z,3.10
2024-01-30T21:30:06.941Z,3.10
2024-01-30T21:32:52.375Z,3.10
2024-01-30T21:39:14.814Z,3.00
2024-01-30T21:42:06.693Z,3.00
2024-01-30T21:45:05.383Z,3.00
2024-01-30T21:47:45.580Z,3.10
2024-01-30T21:50:25.865Z,3.10
2024-01-30T21:53:04.554Z,3.00
2024-01-30T21:59:05.505Z,3.00
2024-01-30T22:02:15.019Z,3.00
2024-01-30T22:05:06.721Z,3.00
2024-01-30T22:07:49.201Z,3.00
2024-01-30T22:10:42.519Z,2.90
2024-01-30T22:13:38.855Z,2.90
2024-01-30T22:16:39.666Z,3.00
2024-01-30T22:20:02.543Z,3.00
2024-01-30T22:26:25.981Z,2.90
2024-01-30T22:29:26.250Z,2.90
2024-01-30T22:32:32.042Z,2.90
2024-01-30T22:35:48.284Z,2.90
2024-01-30T22:38:59.650Z,2.90
2024-01-30T22:42:12.460Z,2.80
2024-01-30T22:45:14.464Z,2.70
2024-01-30T22:47:52.691Z,2.80
2024-01-30T22:50:37.010Z,2.90
2024-01-30T22:53:16.421Z,3.00
2024-01-30T22:56:02.457Z,3.00
2024-01-30T22:59:22.405Z,3.00
2024-01-30T23:02:03.141Z,2.90
2024-01-30T23:04:50.716Z,3.00
2024-01-30T23:10:54.796Z,3.00
2024-01-30T23:13:39.885Z,2.90
2024-01-30T23:16:49.255Z,2.90
2024-01-30T23:19:47.550Z,2.90
2024-01-30T23:22:36.278Z,2.90
2024-01-30T23:25:28.420Z,2.90
2024-01-30T23:28:22.231Z,3.00
2024-01-30T23:30:55.607Z,2.90
2024-01-30T23:33:44.780Z,2.90
2024-01-30T23:39:34.482Z,2.90
2024-01-30T23:42:22.518Z,2.90
2024-01-30T23:45:19.667Z,2.90
2024-01-30T23:48:08.617Z,2.80
2024-01-30T23:50:50.194Z,2.80
2024-01-30T23:53:32.606Z,2.70
2024-01-30T23:56:13.044Z,2.70
2024-01-30T23:58:51.850Z,2.70
